Time;durP1;ratioP1;P1;durP2;ratioP2;P2;SDS_P1;SDS_P2;PMS_P1;PMS_P2;Temp;Humidity;BMP_temperature;BMP_pressure;BME280_temperature;BME280_humidity;BME280_pressure;Samples;Min_cycle;Max_cycle;Signal;HPM_P1;HPM_P2
2022/06/10 00:02:14;;;;;;;;;;;;;;;16.98;85.96;101254.78;5047180;28;19924;-67
2022/06/10 00:04:39;;;;;;;;;;;;;;;16.94;85.73;101254.00;5077275;28;20361;-67
2022/06/10 00:07:05;;;;;;;;;;;;;;;16.80;86.19;101264.81;5083574;28;19924;-67
2022/06/10 00:09:31;;;;;;;;;;;;;;;16.82;86.45;101261.72;5051931;28;19917;-67
2022/06/10 00:11:57;;;;;;;;;;;;;;;16.79;86.44;101249.66;5050462;28;19917;-67
2022/06/10 00:14:22;;;;;;;;;;;;;;;16.77;86.52;101260.13;5049346;28;19921;-67
2022/06/10 00:16:48;;;;;;;;;;;;;;;16.72;86.62;101260.50;5044271;28;19921;-64
2022/06/10 00:19:13;;;;;;;;;;;;;;;16.69;86.91;101258.53;5046657;28;20301;-65
2022/06/10 00:21:38;;;;;;;;;;;;;;;16.63;87.31;101262.78;5051271;28;19916;-67
2022/06/10 00:24:04;;;;;;;;;;;;;;;16.71;87.23;101266.31;5051786;28;19917;-67
2022/06/10 00:26:30;;;;;;;;;;;;;;;16.68;87.38;101273.31;5050757;28;20281;-67
2022/06/10 00:28:55;;;;;;;;;;;;;;;16.74;87.36;101262.84;5047469;28;19917;-67
2022/06/10 00:31:21;;;;;;;;;;;;;;;16.78;87.59;101271.81;5050908;28;20494;-67
2022/06/10 00:33:46;;;;;;;;;;;;;;;16.82;87.87;101267.94;5048929;28;20007;-67
2022/06/10 00:36:11;;;;;;;;;;;;;;;16.85;88.10;101271.84;5050876;28;19970;-67
2022/06/10 00:38:37;;;;;;;;;;;;;;;16.89;88.11;101267.19;5053751;28;19909;-67
2022/06/10 00:41:03;;;;;;;;;;;;;;;16.87;88.27;101269.50;5048193;28;19968;-67
2022/06/10 00:43:32;;;;;;;;;;;;;;;16.83;88.67;101268.72;5051773;28;19916;-67
2022/06/10 00:46:13;;;;;;;;;;;;;;;16.83;88.98;101271.44;5050064;28;19916;-67
2022/06/10 00:48:41;;;;;;;;;;;;;;;16.85;89.14;101278.06;5049856;28;20297;-67
2022/06/10 00:51:24;;;;;;;;;;;;;;;16.85;89.24;101271.84;5046998;28;19917;-67
2022/06/10 00:53:53;;;;;;;;;;;;;;;16.89;89.06;101281.59;5049123;28;19917;-67
2022/06/10 00:56:22;;;;;;;;;;;;;;;16.85;89.18;101282.72;5046824;28;19916;-67
2022/06/10 00:58:59;;;;;;;;;;;;;;;16.83;89.05;101276.88;5050014;28;19921;-67
2022/06/10 01:01:25;;;;;;;;;;;;;;;16.77;88.87;101281.91;5050558;28;19921;-67
2022/06/10 01:03:51;;;;;;;;;;;;;;;16.70;88.95;101287.31;5045867;28;20004;-67
2022/06/10 01:06:16;;;;;;;;;;;;;;;16.63;88.86;101283.75;5046344;28;19923;-67
2022/06/10 01:08:42;;;;;;;;;;;;;;;16.53;89.32;101285.25;5048121;28;19925;-67
2022/06/10 01:11:13;;;;;;;;;;;;;;;16.58;88.82;101284.13;5049802;28;19921;-67
2022/06/10 01:13:47;;;;;;;;;;;;;;;16.52;88.95;101280.19;5048611;28;19917;-67
2022/06/10 01:16:19;;;;;;;;;;;;;;;16.46;88.92;101281.66;5044346;28;19917;-67
2022/06/10 01:19:14;;;;;;;;;;;;;;;16.40;89.00;101283.19;5045631;28;19963;-67
2022/06/10 01:21:48;;;;;;;;;;;;;;;16.35;88.99;101283.56;4995367;28;19921;-67
2022/06/10 01:24:20;;;;;;;;;;;;;;;16.26;88.90;101278.44;5050322;28;19917;-67
2022/06/10 01:29:55;;;;;;;;;;;;;;;16.16;88.73;101279.91;5049680;28;19955;-67
2022/06/10 01:32:30;;;;;;;;;;;;;;;16.15;88.81;101288.44;5050482;28;19925;-67
2022/06/10 01:35:01;;;;;;;;;;;;;;;16.19;88.68;101292.75;5042545;28;19925;-67
2022/06/10 01:37:47;;;;;;;;;;;;;;;16.11;88.72;101293.84;5045597;28;19931;-67
2022/06/10 01:40:33;;;;;;;;;;;;;;;16.04;88.84;101293.81;5048219;28;19975;-67
2022/06/10 01:43:07;;;;;;;;;;;;;;;15.97;88.81;101296.44;5050071;28;19916;-67
2022/06/10 01:45:35;;;;;;;;;;;;;;;15.93;88.75;101295.63;5044771;28;20282;-67
2022/06/10 01:48:06;;;;;;;;;;;;;;;15.88;89.26;101308.78;5049403;28;19978;-67
2022/06/10 01:50:41;;;;;;;;;;;;;;;15.89;89.15;101294.06;5048865;28;19916;-67
2022/06/10 01:53:07;;;;;;;;;;;;;;;15.86;88.66;101297.50;5041318;28;19920;-67
2022/06/10 01:55:32;;;;;;;;;;;;;;;15.84;88.80;101307.97;5044294;28;20327;-67
2022/06/10 01:57:58;;;;;;;;;;;;;;;15.85;88.89;101312.25;5049873;28;20448;-67
2022/06/10 02:00:25;;;;;;;;;;;;;;;15.73;89.23;101304.38;5047428;28;20019;-68
2022/06/10 02:03:03;;;;;;;;;;;;;;;15.72;89.29;101306.31;5048301;28;20397;-67
2022/06/10 02:05:32;;;;;;;;;;;;;;;15.70;89.59;101308.59;5046369;28;19916;-67
2022/06/10 02:08:00;;;;;;;;;;;;;;;15.70;89.59;101310.56;5041543;28;19967;-67
2022/06/10 02:10:32;;;;;;;;;;;;;;;15.66;89.58;101310.50;5050346;28;19917;-68
2022/06/10 02:13:05;;;;;;;;;;;;;;;15.65;89.91;101311.69;5039673;28;19967;-67
2022/06/10 02:15:40;;;;;;;;;;;;;;;15.57;90.03;101309.25;5048736;28;19960;-67
2022/06/10 02:18:11;;;;;;;;;;;;;;;15.58;89.85;101314.28;5042611;28;19970;-67
2022/06/10 02:20:41;;;;;;;;;;;;;;;15.57;89.84;101310.03;5042964;28;19921;-67
2022/06/10 02:23:07;;;;;;;;;;;;;;;15.51;89.87;101321.59;5043224;28;19971;-67
2022/06/10 02:25:37;;;;;;;;;;;;;;;15.51;89.94;101325.09;5049187;28;19951;-65
2022/06/10 02:28:07;;;;;;;;;;;;;;;15.48;89.91;101314.19;5049718;28;19924;-65
2022/06/10 02:30:36;;;;;;;;;;;;;;;15.42;89.96;101330.03;5045874;28;19921;-67
2022/06/10 02:33:02;;;;;;;;;;;;;;;15.43;89.72;101317.25;5049571;28;19925;-67
2022/06/10 02:35:30;;;;;;;;;;;;;;;15.45;89.51;101326.56;5046433;28;19913;-67
2022/06/10 02:38:22;;;;;;;;;;;;;;;15.40;89.80;101329.59;5049727;28;19925;-67
2022/06/10 02:40:59;;;;;;;;;;;;;;;15.42;89.57;101323.81;5044433;28;19936;-67
2022/06/10 02:43:34;;;;;;;;;;;;;;;15.43;89.44;101328.13;5053049;28;19956;-67
2022/06/10 02:45:59;;;;;;;;;;;;;;;15.40;89.61;101324.16;5052126;28;20530;-67
2022/06/10 02:48:43;;;;;;;;;;;;;;;15.43;89.23;101328.88;5053574;28;19917;-68
2022/06/10 02:51:09;;;;;;;;;;;;;;;15.34;89.57;101331.06;5039622;28;19924;-68
2022/06/10 02:53:35;;;;;;;;;;;;;;;15.30;89.89;101335.69;5048516;28;19924;-68
2022/06/10 02:56:00;;;;;;;;;;;;;;;15.28;89.79;101332.53;5048207;28;19967;-68
2022/06/10 03:01:30;;;;;;;;;;;;;;;15.25;90.10;101334.06;5049667;28;19979;-68
2022/06/10 03:04:16;;;;;;;;;;;;;;;15.28;90.37;101341.47;5052929;28;19952;-67
2022/06/10 03:06:56;;;;;;;;;;;;;;;15.26;90.58;101338.34;5049568;28;19928;-68
2022/06/10 03:09:33;;;;;;;;;;;;;;;15.22;90.75;101345.66;5049929;28;19921;-68
2022/06/10 03:12:03;;;;;;;;;;;;;;;15.22;90.51;101347.59;5051654;28;19916;-68
2022/06/10 03:14:31;;;;;;;;;;;;;;;15.18;90.89;101344.03;5049225;28;20059;-68
2022/06/10 03:16:57;;;;;;;;;;;;;;;15.19;90.66;101349.09;5064832;28;19921;-68
2022/06/10 03:19:34;;;;;;;;;;;;;;;15.15;90.72;101351.00;5052797;28;19924;-68
2022/06/10 03:22:11;;;;;;;;;;;;;;;15.17;91.24;101350.63;5050867;28;19942;-68
2022/06/10 03:24:36;;;;;;;;;;;;;;;15.22;90.76;101353.00;5051427;28;20005;-68
2022/06/10 03:27:02;;;;;;;;;;;;;;;15.21;91.16;101356.91;5052519;28;19963;-68
2022/06/10 03:29:27;;;;;;;;;;;;;;;15.25;91.52;101361.19;5052761;28;19924;-68
2022/06/10 03:31:56;;;;;;;;;;;;;;;15.24;91.43;101359.66;5067830;28;20038;-68
2022/06/10 03:34:28;;;;;;;;;;;;;;;15.36;91.00;101366.78;5049535;28;20412;-68
2022/06/10 03:36:57;;;;;;;;;;;;;;;15.33;92.10;101368.28;5051405;28;20008;-68
2022/06/10 03:39:23;;;;;;;;;;;;;;;15.32;92.41;101365.94;5052325;28;19924;-68
2022/06/10 03:41:54;;;;;;;;;;;;;;;15.33;92.43;101359.34;5052083;28;20025;-68
2022/06/10 03:44:20;;;;;;;;;;;;;;;15.32;93.17;101357.81;5051920;28;20320;-68
2022/06/10 03:46:47;;;;;;;;;;;;;;;15.33;93.35;101353.91;5083155;28;19924;-68
2022/06/10 03:49:15;;;;;;;;;;;;;;;15.32;93.58;101361.31;5052834;28;19923;-68
2022/06/10 03:51:41;;;;;;;;;;;;;;;15.29;93.53;101364.75;5051532;28;19978;-68
2022/06/10 03:54:09;;;;;;;;;;;;;;;15.34;93.54;101369.06;5050472;28;19939;-68
2022/06/10 03:56:36;;;;;;;;;;;;;;;15.35;93.89;101374.13;5048574;28;19928;-68
2022/06/10 03:59:02;;;;;;;;;;;;;;;15.39;93.50;101372.25;5052190;28;20023;-68
2022/06/10 04:01:27;;;;;;;;;;;;;;;15.38;94.60;101376.13;5052128;28;19920;-68
2022/06/10 04:03:53;;;;;;;;;;;;;;;15.45;94.34;101366.53;5050422;28;19931;-68
2022/06/10 04:06:18;;;;;;;;;;;;;;;15.44;94.43;101379.31;5047712;28;20335;-68
2022/06/10 04:08:44;;;;;;;;;;;;;;;15.49;94.52;101365.41;5049424;28;19963;-68
2022/06/10 04:11:09;;;;;;;;;;;;;;;15.53;94.30;101373.59;5050252;28;19929;-68
2022/06/10 04:13:35;;;;;;;;;;;;;;;15.53;94.69;101374.38;5052108;28;19938;-68
2022/06/10 04:16:00;;;;;;;;;;;;;;;15.52;94.76;101378.25;5047627;28;19943;-68
2022/06/10 04:18:26;;;;;;;;;;;;;;;15.57;95.09;101372.47;5050346;28;19917;-68
2022/06/10 04:20:51;;;;;;;;;;;;;;;15.64;94.89;101377.22;5047205;28;19948;-68
2022/06/10 04:23:17;;;;;;;;;;;;;;;15.74;94.26;101374.63;5051208;28;19916;-68
2022/06/10 04:25:44;;;;;;;;;;;;;;;15.67;94.89;101379.97;5047856;28;20012;-68
2022/06/10 04:28:10;;;;;;;;;;;;;;;15.69;95.28;101377.66;5051707;28;19928;-68
2022/06/10 04:30:38;;;;;;;;;;;;;;;15.61;95.89;101389.59;5051078;28;19917;-68
2022/06/10 04:33:04;;;;;;;;;;;;;;;15.67;96.04;101395.47;5078058;28;19924;-68
2022/06/10 04:35:29;;;;;;;;;;;;;;;15.67;96.31;101388.13;5046249;28;19917;-68
2022/06/10 04:37:55;;;;;;;;;;;;;;;15.72;96.26;101389.72;5047875;28;19932;-68
2022/06/10 04:40:22;;;;;;;;;;;;;;;15.81;96.10;101392.94;5046428;28;20407;-68
2022/06/10 04:42:48;;;;;;;;;;;;;;;15.80;96.27;101385.91;5051386;28;19928;-68
2022/06/10 04:45:15;;;;;;;;;;;;;;;15.84;96.55;101389.47;5049967;28;19964;-68
2022/06/10 04:47:40;;;;;;;;;;;;;;;15.88;96.87;101379.41;5043709;28;19917;-68
2022/06/10 04:50:06;;;;;;;;;;;;;;;15.92;96.93;101386.47;5051682;28;20007;-68
2022/06/10 04:52:33;;;;;;;;;;;;;;;16.03;96.49;101391.97;5050640;28;19921;-68
2022/06/10 04:54:58;;;;;;;;;;;;;;;16.07;96.81;101392.81;5049822;28;20297;-68
2022/06/10 04:57:24;;;;;;;;;;;;;;;16.17;96.34;101401.06;5048630;28;19917;-67
2022/06/10 04:59:49;;;;;;;;;;;;;;;16.20;96.46;101400.31;5049728;28;19928;-67
2022/06/10 05:02:14;;;;;;;;;;;;;;;16.27;96.38;101400.41;5045628;28;19986;-67
2022/06/10 05:04:40;;;;;;;;;;;;;;;16.28;96.56;101407.38;5049109;28;19917;-67
2022/06/10 05:07:05;;;;;;;;;;;;;;;16.46;95.41;101407.53;5051060;28;19960;-67
2022/06/10 05:09:31;;;;;;;;;;;;;;;16.59;95.07;101408.09;5044553;28;19933;-67
2022/06/10 05:11:56;;;;;;;;;;;;;;;16.88;94.06;101416.06;5050213;28;19983;-65
2022/06/10 05:14:22;;;;;;;;;;;;;;;17.68;91.66;101417.69;5047071;28;19932;-64
2022/06/10 05:16:47;;;;;;;;;;;;;;;18.83;87.67;101421.00;5063735;28;19944;-65
2022/06/10 05:19:13;;;;;;;;;;;;;;;20.00;82.13;101432.31;5050903;28;19920;-65
2022/06/10 05:21:38;;;;;;;;;;;;;;;20.99;77.56;101430.44;5050205;28;20339;-65
2022/06/10 05:24:04;;;;;;;;;;;;;;;21.86;72.29;101435.34;5046358;28;19962;-65
2022/06/10 05:26:29;;;;;;;;;;;;;;;22.61;67.46;101444.84;5049928;28;19917;-65
2022/06/10 05:28:58;;;;;;;;;;;;;;;23.28;63.58;101440.91;5082494;28;19925;-65
2022/06/10 05:31:24;;;;;;;;;;;;;;;23.89;59.55;101452.25;5049716;28;20035;-65
2022/06/10 05:36:33;;;;;;;;;;;;;;;24.85;55.94;101448.88;5041849;28;19955;-65
2022/06/10 05:38:58;;;;;;;;;;;;;;;25.09;54.78;101438.41;5049565;28;19971;-66
2022/06/10 05:44:09;;;;;;;;;;;;;;;25.70;52.81;101444.56;5048931;28;19917;-65
2022/06/10 05:46:35;;;;;;;;;;;;;;;25.96;51.97;101451.66;5046279;28;20010;-65
2022/06/10 05:49:01;;;;;;;;;;;;;;;26.20;50.73;101443.88;5049834;28;19964;-65
2022/06/10 05:51:26;;;;;;;;;;;;;;;26.22;50.76;101446.97;5050280;28;20003;-65
2022/06/10 05:53:51;;;;;;;;;;;;;;;26.33;50.47;101450.94;5044887;28;19921;-65
2022/06/10 05:56:17;;;;;;;;;;;;;;;26.39;50.01;101445.63;5048804;28;19923;-65
2022/06/10 05:58:42;;;;;;;;;;;;;;;26.36;49.44;101449.28;5047750;28;19921;-65
2022/06/10 06:01:08;;;;;;;;;;;;;;;26.31;49.77;101456.13;5049261;28;20394;-65
2022/06/10 06:03:33;;;;;;;;;;;;;;;26.21;49.90;101454.47;5048931;28;19921;-65
2022/06/10 06:05:59;;;;;;;;;;;;;;;26.10;50.09;101462.31;5048824;28;19917;-65
2022/06/10 06:08:24;;;;;;;;;;;;;;;26.03;50.81;101459.75;5039556;28;20409;-65
2022/06/10 06:10:50;;;;;;;;;;;;;;;25.85;51.46;101456.75;5040734;28;19937;-65
2022/06/10 06:13:15;;;;;;;;;;;;;;;25.70;51.50;101455.63;5037030;28;19924;-65
2022/06/10 06:15:40;;;;;;;;;;;;;;;25.44;50.69;101457.53;5038912;28;19917;-65
2022/06/10 06:18:06;;;;;;;;;;;;;;;25.10;52.27;101459.25;5039424;28;19921;-65
2022/06/10 06:20:31;;;;;;;;;;;;;;;24.66;54.26;101456.00;5040014;28;19929;-65
2022/06/10 06:22:57;;;;;;;;;;;;;;;24.55;55.12;101460.22;5043230;28;19917;-65
2022/06/10 06:25:23;;;;;;;;;;;;;;;24.50;56.01;101469.78;5047260;28;19920;-65
2022/06/10 06:27:49;;;;;;;;;;;;;;;24.48;55.23;101468.66;5052699;28;19916;-65
2022/06/10 06:30:16;;;;;;;;;;;;;;;24.36;54.54;101458.31;5054313;28;19924;-65
2022/06/10 06:32:41;;;;;;;;;;;;;;;24.24;55.74;101458.97;5050769;28;20169;-65
2022/06/10 06:35:07;;;;;;;;;;;;;;;24.08;55.95;101467.97;5046719;28;20540;-65
2022/06/10 06:37:33;;;;;;;;;;;;;;;23.91;57.84;101466.38;5053664;28;19924;-65
2022/06/10 06:39:58;;;;;;;;;;;;;;;23.91;57.96;101464.41;5045812;28;19958;-65
2022/06/10 06:42:24;;;;;;;;;;;;;;;23.88;56.97;101467.22;5049322;28;20333;-65
2022/06/10 06:44:57;;;;;;;;;;;;;;;23.82;56.43;101474.44;5051911;28;20421;-65
2022/06/10 06:47:22;;;;;;;;;;;;;;;23.75;56.73;101475.34;5050946;28;19987;-65
2022/06/10 06:49:47;;;;;;;;;;;;;;;23.72;56.79;101475.41;5050036;28;19923;-65
2022/06/10 06:52:13;;;;;;;;;;;;;;;23.66;57.66;101477.13;5051050;28;19923;-65
2022/06/10 06:54:38;;;;;;;;;;;;;;;23.58;58.09;101476.47;5049595;28;19924;-65
2022/06/10 06:57:04;;;;;;;;;;;;;;;23.59;56.81;101474.50;5052894;28;19921;-65
2022/06/10 06:59:30;;;;;;;;;;;;;;;23.54;56.62;101475.78;5052315;28;19916;-65
2022/06/10 07:01:56;;;;;;;;;;;;;;;23.55;56.22;101480.09;5049413;28;19928;-65
2022/06/10 07:04:21;;;;;;;;;;;;;;;23.59;54.49;101478.03;5048541;28;20381;-65
2022/06/10 07:06:46;;;;;;;;;;;;;;;23.52;54.00;101483.66;5044902;28;20004;-65
2022/06/10 07:09:13;;;;;;;;;;;;;;;23.47;54.64;101477.88;5042538;28;20003;-65
2022/06/10 07:11:38;;;;;;;;;;;;;;;23.49;53.92;101486.50;5037053;28;19925;-64
2022/06/10 07:14:04;;;;;;;;;;;;;;;23.55;53.51;101487.56;5041825;28;19916;-65
2022/06/10 07:16:29;;;;;;;;;;;;;;;23.54;53.16;101486.78;5039542;28;19970;-65
2022/06/10 07:18:55;;;;;;;;;;;;;;;23.58;53.04;101486.69;5038259;28;19916;-65
2022/06/10 07:21:20;;;;;;;;;;;;;;;23.64;53.07;101479.50;5043822;28;19928;-65
2022/06/10 07:23:46;;;;;;;;;;;;;;;23.63;54.89;101478.75;5044027;28;20412;-64
2022/06/10 07:26:11;;;;;;;;;;;;;;;23.70;53.03;101481.34;5051939;28;19972;-65
2022/06/10 07:28:37;;;;;;;;;;;;;;;23.62;52.43;101479.16;5047653;28;20466;-65
2022/06/10 07:31:02;;;;;;;;;;;;;;;23.64;52.72;101482.25;5052086;28;19921;-65
2022/06/10 07:33:28;;;;;;;;;;;;;;;23.60;54.51;101487.84;5053168;28;20006;-65
2022/06/10 07:35:54;;;;;;;;;;;;;;;23.65;54.55;101487.38;5048580;28;19964;-65
2022/06/10 07:38:19;;;;;;;;;;;;;;;23.89;51.70;101483.31;5052749;28;19917;-65
2022/06/10 07:43:31;;;;;;;;;;;;;;;24.15;51.98;101485.16;5051746;28;19920;-65
2022/06/10 07:45:58;;;;;;;;;;;;;;;24.21;52.02;101484.63;5050937;28;19917;-65
2022/06/10 07:48:23;;;;;;;;;;;;;;;24.23;52.10;101476.72;5043796;28;19920;-65
2022/06/10 07:50:49;;;;;;;;;;;;;;;24.42;51.20;101482.16;5049537;28;19962;-65
2022/06/10 07:53:14;;;;;;;;;;;;;;;24.52;50.54;101492.16;5049638;28;19920;-65
2022/06/10 07:55:40;;;;;;;;;;;;;;;24.60;49.46;101487.25;5044823;28;20301;-65
2022/06/10 07:58:06;;;;;;;;;;;;;;;24.61;50.74;101486.81;5047610;28;19924;-65
2022/06/10 08:00:34;;;;;;;;;;;;;;;24.52;51.71;101477.63;5046501;28;20355;-65
2022/06/10 08:03:00;;;;;;;;;;;;;;;24.70;50.55;101478.72;5048498;28;20062;-65
2022/06/10 08:05:25;;;;;;;;;;;;;;;24.88;49.50;101481.84;5082070;28;20293;-65
2022/06/10 08:07:50;;;;;;;;;;;;;;;24.94;48.88;101485.63;5052230;28;20103;-65
2022/06/10 08:10:32;;;;;;;;;;;;;;;25.04;48.08;101476.31;5044513;28;19916;-66
2022/06/10 08:12:58;;;;;;;;;;;;;;;25.12;48.63;101476.91;5050070;28;19917;-66
2022/06/10 08:15:24;;;;;;;;;;;;;;;25.17;49.37;101478.34;5050778;28;20063;-65
2022/06/10 08:17:49;;;;;;;;;;;;;;;25.37;48.74;101479.78;5047682;28;19921;-66
2022/06/10 08:20:21;;;;;;;;;;;;;;;25.51;48.26;101471.13;5042369;28;20011;-66
2022/06/10 08:22:47;;;;;;;;;;;;;;;25.63;47.65;101478.66;5043916;28;19924;-65
2022/06/10 08:25:13;;;;;;;;;;;;;;;25.56;48.92;101475.34;5045027;28;20420;-65
2022/06/10 08:27:38;;;;;;;;;;;;;;;25.70;48.45;101478.47;5049373;28;19917;-66
2022/06/10 08:30:05;;;;;;;;;;;;;;;25.74;47.32;101473.63;5065431;28;19920;-65
2022/06/10 08:32:30;;;;;;;;;;;;;;;25.94;46.25;101470.66;5051133;28;19916;-65
2022/06/10 08:34:56;;;;;;;;;;;;;;;25.97;46.60;101467.03;5041732;28;19963;-66
2022/06/10 08:37:21;;;;;;;;;;;;;;;26.06;46.74;101475.47;5046141;28;19925;-65
2022/06/10 08:39:47;;;;;;;;;;;;;;;26.14;46.50;101478.78;5049782;28;19928;-65
2022/06/10 08:42:18;;;;;;;;;;;;;;;26.25;45.79;101474.47;5048746;28;19925;-66
2022/06/10 08:44:54;;;;;;;;;;;;;;;26.23;46.12;101459.56;5041582;28;19917;-66
2022/06/10 08:47:25;;;;;;;;;;;;;;;26.37;45.11;101470.16;5041906;28;19925;-66
2022/06/10 08:49:50;;;;;;;;;;;;;;;26.41;46.64;101473.59;5040579;28;19917;-65
2022/06/10 08:52:22;;;;;;;;;;;;;;;26.57;43.51;101471.47;5042008;28;19925;-65
2022/06/10 08:54:53;;;;;;;;;;;;;;;26.49;46.05;101464.63;5053292;28;19924;-65
2022/06/10 08:57:36;;;;;;;;;;;;;;;26.72;45.38;101457.97;5046882;28;20278;-65
2022/06/10 09:00:03;;;;;;;;;;;;;;;26.75;44.97;101474.44;5026788;28;19990;-65
2022/06/10 09:02:33;;;;;;;;;;;;;;;26.84;43.65;101459.16;5046453;28;19921;-65
2022/06/10 09:05:06;;;;;;;;;;;;;;;27.00;45.27;101459.03;5047499;28;19917;-65
2022/06/10 09:07:51;;;;;;;;;;;;;;;27.15;44.50;101457.28;5043559;28;19970;-65
2022/06/10 09:10:29;;;;;;;;;;;;;;;27.18;43.59;101459.16;5057370;28;19977;-65
2022/06/10 09:13:10;;;;;;;;;;;;;;;27.18;43.86;101457.16;5041577;28;19943;-65
2022/06/10 09:15:41;;;;;;;;;;;;;;;27.26;44.48;101452.94;5036832;28;19943;-65
2022/06/10 09:18:11;;;;;;;;;;;;;;;27.43;42.37;101456.28;5043762;28;19925;-65
2022/06/10 09:20:43;;;;;;;;;;;;;;;27.49;43.12;101460.03;5047247;28;20073;-65
2022/06/10 09:23:10;;;;;;;;;;;;;;;27.48;43.08;101455.75;5039648;28;19983;-65
2022/06/10 09:25:37;;;;;;;;;;;;;;;27.64;43.18;101447.22;5037816;28;20282;-65
2022/06/10 09:28:03;;;;;;;;;;;;;;;27.62;43.99;101452.44;5067944;28;19923;-66
2022/06/10 09:30:28;;;;;;;;;;;;;;;27.65;42.95;101449.53;5042809;28;19916;-65
2022/06/10 09:32:59;;;;;;;;;;;;;;;27.49;42.58;101443.44;5042643;28;19917;-66
2022/06/10 09:35:43;;;;;;;;;;;;;;;27.67;43.05;101449.88;5036233;28;19925;-65
2022/06/10 09:38:12;;;;;;;;;;;;;;;27.79;42.10;101445.47;5032756;28;20038;-65
2022/06/10 09:40:37;;;;;;;;;;;;;;;27.71;42.54;101452.50;5036452;28;19958;-66
2022/06/10 09:43:21;;;;;;;;;;;;;;;27.44;42.48;101450.34;5033442;28;20378;-66
2022/06/10 09:45:56;;;;;;;;;;;;;;;27.38;43.19;101441.06;5031134;28;19924;-66
2022/06/10 09:48:34;;;;;;;;;;;;;;;27.45;43.49;101440.78;5030218;28;20012;-66
2022/06/10 09:51:18;;;;;;;;;;;;;;;27.80;43.75;101446.25;5045402;28;20285;-65
2022/06/10 09:54:02;;;;;;;;;;;;;;;27.98;42.63;101449.13;5029903;22;19964;-65
2022/06/10 09:56:41;;;;;;;;;;;;;;;28.05;42.44;101444.06;4997098;28;19969;-63
2022/06/10 09:59:32;;;;;;;;;;;;;;;28.14;41.63;101437.81;4988469;28;19917;-66
2022/06/10 10:02:17;;;;;;;;;;;;;;;28.23;41.92;101449.69;4992449;28;20078;-66
2022/06/10 10:04:47;;;;;;;;;;;;;;;28.07;40.91;101444.38;4989583;28;19918;-68
2022/06/10 10:07:21;;;;;;;;;;;;;;;27.80;40.11;101446.25;4995234;28;20341;-68
2022/06/10 10:10:06;;;;;;;;;;;;;;;27.64;41.00;101439.69;4991283;28;19921;-65
2022/06/10 10:12:34;;;;;;;;;;;;;;;27.87;40.59;101443.97;5015294;28;19963;-65
2022/06/10 10:15:05;;;;;;;;;;;;;;;27.93;41.39;101438.59;4995966;28;20277;-65
2022/06/10 10:17:43;;;;;;;;;;;;;;;28.16;40.46;101438.13;4997505;28;20396;-65
2022/06/10 10:20:27;;;;;;;;;;;;;;;28.33;40.29;101437.41;4995179;28;20012;-65
2022/06/10 10:23:14;;;;;;;;;;;;;;;28.08;41.69;101434.09;4983677;28;19930;-67
2022/06/10 10:25:40;;;;;;;;;;;;;;;28.04;41.25;101434.22;4995338;28;19926;-64
2022/06/10 10:28:20;;;;;;;;;;;;;;;27.69;41.99;101432.78;4989944;28;19921;-64
2022/06/10 10:30:49;;;;;;;;;;;;;;;27.55;41.91;101436.88;4984759;28;19949;-66
2022/06/10 10:33:14;;;;;;;;;;;;;;;27.33;42.62;101438.09;4989301;28;19925;-65
2022/06/10 10:36:00;;;;;;;;;;;;;;;27.17;42.30;101429.94;4995985;28;19936;-64
2022/06/10 10:38:37;;;;;;;;;;;;;;;27.21;42.76;101431.38;4995436;28;19926;-63
2022/06/10 10:41:17;;;;;;;;;;;;;;;27.37;41.81;101419.38;4999895;28;20016;-64
2022/06/10 10:43:45;;;;;;;;;;;;;;;27.67;41.22;101415.84;4990163;28;19968;-65
2022/06/10 10:46:29;;;;;;;;;;;;;;;27.86;41.55;101417.47;4992673;28;19924;-66
2022/06/10 10:48:57;;;;;;;;;;;;;;;27.88;41.50;101417.81;4998022;28;20368;-64
2022/06/10 10:51:25;;;;;;;;;;;;;;;28.07;41.29;101427.75;4998326;28;19921;-64
2022/06/10 10:53:55;;;;;;;;;;;;;;;28.31;40.08;101423.22;4999316;28;19945;-67
2022/06/10 10:56:29;;;;;;;;;;;;;;;28.48;39.99;101421.72;4992727;28;20288;-66
2022/06/10 10:58:56;;;;;;;;;;;;;;;28.63;39.87;101426.72;4995409;28;19961;-66
2022/06/10 11:01:44;;;;;;;;;;;;;;;28.66;39.08;101420.25;4994664;28;19930;-68
2022/06/10 11:04:25;;;;;;;;;;;;;;;28.40;39.37;101423.25;4980481;28;19929;-66
2022/06/10 11:06:59;;;;;;;;;;;;;;;28.00;40.38;101416.19;4991159;28;19918;-66
2022/06/10 11:09:26;;;;;;;;;;;;;;;27.92;41.86;101421.22;4988470;28;19918;-66
2022/06/10 11:11:52;;;;;;;;;;;;;;;28.03;42.32;101412.53;4990145;28;19948;-65
2022/06/10 11:14:24;;;;;;;;;;;;;;;28.35;41.90;101418.31;5000308;28;20301;-66
2022/06/10 11:16:59;;;;;;;;;;;;;;;28.37;42.94;101424.19;5003311;28;19918;-66
2022/06/10 11:19:26;;;;;;;;;;;;;;;28.49;41.50;101416.97;5001007;28;20384;-66
2022/06/10 11:21:54;;;;;;;;;;;;;;;28.64;41.01;101406.06;5001832;28;20027;-65
2022/06/10 11:24:23;;;;;;;;;;;;;;;28.88;39.30;101407.75;5005575;28;19924;-66
2022/06/10 11:26:50;;;;;;;;;;;;;;;28.93;38.40;101401.63;5002083;28;20063;-67
2022/06/10 11:29:16;;;;;;;;;;;;;;;28.74;38.83;101413.16;4998019;28;19918;-67
2022/06/10 11:31:46;;;;;;;;;;;;;;;28.53;40.68;101404.47;5001123;28;20411;-67
2022/06/10 11:34:16;;;;;;;;;;;;;;;28.82;40.38;101400.53;5005497;28;20230;-67
2022/06/10 11:36:46;;;;;;;;;;;;;;;29.13;38.58;101401.19;4999255;28;19941;-67
2022/06/10 11:39:16;;;;;;;;;;;;;;;29.08;39.63;101405.31;4997871;28;20303;-67
2022/06/10 11:41:42;;;;;;;;;;;;;;;29.17;39.70;101405.31;5003657;28;19929;-67
2022/06/10 11:44:13;;;;;;;;;;;;;;;28.87;39.20;101405.47;5008200;28;19929;-67
2022/06/10 11:46:58;;;;;;;;;;;;;;;28.59;39.22;101401.88;4991609;28;20443;-67
2022/06/10 11:49:40;;;;;;;;;;;;;;;28.40;39.96;101395.53;4990518;28;20055;-67
2022/06/10 11:52:12;;;;;;;;;;;;;;;28.26;40.05;101401.66;4994961;28;19969;-68
2022/06/10 11:54:41;;;;;;;;;;;;;;;28.29;40.60;101395.19;4992775;28;19940;-67
2022/06/10 11:59:54;;;;;;;;;;;;;;;28.38;40.34;101394.44;4996254;28;19921;-66
2022/06/10 12:02:49;;;;;;;;;;;;;;;28.47;40.82;101388.91;4986371;28;19934;-68
2022/06/10 12:05:26;;;;;;;;;;;;;;;28.62;40.13;101391.88;4992632;28;19922;-67
2022/06/10 12:07:56;;;;;;;;;;;;;;;28.66;40.48;101378.63;5007010;28;19917;-67
2022/06/10 12:10:24;;;;;;;;;;;;;;;28.66;39.63;101381.41;4994552;28;20028;-67
2022/06/10 12:12:50;;;;;;;;;;;;;;;28.62;40.21;101376.03;4991318;28;19958;-68
2022/06/10 12:15:24;;;;;;;;;;;;;;;28.59;39.72;101376.19;4992336;28;20463;-67
2022/06/10 12:17:52;;;;;;;;;;;;;;;28.22;41.51;101367.75;4978588;28;19925;-67
2022/06/10 12:20:36;;;;;;;;;;;;;;;28.10;41.86;101376.22;4999679;28;19921;-67
2022/06/10 12:23:20;;;;;;;;;;;;;;;28.17;42.34;101373.13;4995786;28;19922;-67
2022/06/10 12:25:46;;;;;;;;;;;;;;;28.18;42.57;101366.38;5001493;28;19922;-67
2022/06/10 12:28:24;;;;;;;;;;;;;;;28.24;42.09;101365.28;4999511;28;20406;-67
2022/06/10 12:30:58;;;;;;;;;;;;;;;28.47;41.64;101359.16;4999194;28;20337;-66
2022/06/10 12:33:29;;;;;;;;;;;;;;;28.59;41.55;101378.94;5003110;28;19921;-67
2022/06/10 12:35:56;;;;;;;;;;;;;;;28.56;41.62;101360.44;4997279;28;19926;-67
2022/06/10 12:38:32;;;;;;;;;;;;;;;28.60;41.74;101364.63;4995209;28;19926;-66
2022/06/10 12:41:05;;;;;;;;;;;;;;;28.47;42.16;101370.25;4995431;28;20587;-65
2022/06/10 12:43:33;;;;;;;;;;;;;;;28.43;41.64;101357.81;4984221;28;20340;-68
2022/06/10 12:46:00;;;;;;;;;;;;;;;28.30;41.46;101352.38;4995393;28;19917;-67
2022/06/10 12:48:27;;;;;;;;;;;;;;;28.15;42.00;101354.19;4995564;28;20304;-67
2022/06/10 12:51:11;;;;;;;;;;;;;;;28.18;41.61;101361.63;4994251;28;19917;-66
2022/06/10 12:53:51;;;;;;;;;;;;;;;28.00;41.92;101363.53;4984720;28;19928;-68
2022/06/10 12:56:21;;;;;;;;;;;;;;;27.91;42.90;101360.72;4992824;28;19927;-66
2022/06/10 12:58:53;;;;;;;;;;;;;;;27.90;42.98;101362.72;4997813;28;21247;-66
2022/06/10 13:01:18;;;;;;;;;;;;;;;27.85;43.23;101366.09;4999193;28;19998;-68
2022/06/10 13:03:44;;;;;;;;;;;;;;;27.93;42.93;101367.38;4995043;28;19921;-67
2022/06/10 13:06:29;;;;;;;;;;;;;;;27.75;43.76;101367.28;4989874;28;19917;-67